Аэропорт: Уфа. Уфа

ICAO: UWUU

METAR:
2019/01/21 23:00
UWUU 212300Z 17008MPS 1000 0800NW R14R/1500U +SN OVC006 M10/M12 Q1011 R14R/452046 TEMPO 0300 +SN BLSN VV004 RMK QBB180 QFE748/0998
METAR:
2019/01/21 21:21
TAF TAF UWUU 212001Z 2121/2221 19007G13MPS 2100 -SN BLSN OVC007 
      TEMPO 2121/2206 17009G15MPS 0500 +SN BLSN VV004 
     FM220600 24005G10MPS 4000 -SN OVC011 
      TEMPO 2206/2221 27005G10MPS 2100 -SHSN VV007